Aviation Digital Data Service (ADDS)

Output produced by METARs form (0349 UTC 18 June 2019)
found at http://www.aviationweather.gov/metar/data/
 
Forecast for: VOCL (CALICUT , IN)
Text: TAF VOCL 180200Z 1803/1812 25010KT 6000 FEW015 FEW025CB BKN080
Forecast period: 0300 to 1200 UTC 18 June 2019
Forecast type: FROM: standard forecast or significant change
Winds: from the WSW (250 degrees) at 12 MPH (10 knots; 5.1 m/s)
Visibility: 4 miles (6 km)
Ceiling: 8000 feet AGL
Clouds: few clouds at 1500 feet AGL
few clouds at 2500 feet AGL
broken clouds at 8000 feet AGL
Weather: no significant weather forecast for this period
Text: TEMPO 1810/1812 3000 TS SCT012 FEW025CB BKN080
Forecast period: 1000 to 1200 UTC 18 June 2019
Forecast type: TEMPORARY: The following changes expected for less than half the time period
Visibility: 1.86 miles (2.99 km)
Ceiling: 8000 feet AGL
Clouds: scattered clouds at 1200 feet AGL
few clouds at 2500 feet AGL
broken clouds at 8000 feet AGL
Weather: TS  (thunderstorm)